sensor_id;sensor_type;location;lat;lon;timestamp;pressure;altitude;pressure_sealevel;temperature;humidity
6680;BME280;3376;42.664;23.346;2023-03-01T00:01:53;95024.22;;;7.98;100.00
6680;BME280;3376;42.664;23.346;2023-03-01T00:04:20;95017.19;;;7.91;100.00
6680;BME280;3376;42.664;23.346;2023-03-01T00:06:46;95009.09;;;7.86;100.00
6680;BME280;3376;42.664;23.346;2023-03-01T00:09:13;95015.28;;;7.75;100.00
6680;BME280;3376;42.664;23.346;2023-03-01T00:11:42;95012.66;;;7.85;100.00
6680;BME280;3376;42.664;23.346;2023-03-01T00:14:09;95004.88;;;7.67;100.00
6680;BME280;3376;42.664;23.346;2023-03-01T00:16:38;94985.66;;;7.62;100.00
6680;BME280;3376;42.664;23.346;2023-03-01T00:19:06;94989.63;;;7.56;100.00
6680;BME280;3376;42.664;23.346;2023-03-01T00:21:33;94991.06;;;7.41;100.00
6680;BME280;3376;42.664;23.346;2023-03-01T00:24:01;94975.91;;;7.38;100.00
6680;BME280;3376;42.664;23.346;2023-03-01T00:26:27;94982.25;;;7.44;100.00
6680;BME280;3376;42.664;23.346;2023-03-01T00:28:57;94975.47;;;7.43;100.00
6680;BME280;3376;42.664;23.346;2023-03-01T00:31:26;94913.34;;;7.01;100.00
6680;BME280;3376;42.664;23.346;2023-03-01T00:33:55;94934.94;;;7.18;100.00
6680;BME280;3376;42.664;23.346;2023-03-01T00:36:24;94953.28;;;7.32;100.00
6680;BME280;3376;42.664;23.346;2023-03-01T00:38:51;94958.06;;;7.27;100.00
6680;BME280;3376;42.664;23.346;2023-03-01T00:41:19;94928.22;;;7.07;100.00
6680;BME280;3376;42.664;23.346;2023-03-01T00:43:48;94966.38;;;7.21;100.00
6680;BME280;3376;42.664;23.346;2023-03-01T00:46:19;94969.13;;;7.10;100.00
6680;BME280;3376;42.664;23.346;2023-03-01T00:48:46;94946.41;;;7.05;100.00
6680;BME280;3376;42.664;23.346;2023-03-01T00:51:15;94968.56;;;7.16;100.00
6680;BME280;3376;42.664;23.346;2023-03-01T00:53:42;94949.72;;;7.15;100.00
6680;BME280;3376;42.664;23.346;2023-03-01T00:56:11;94954.34;;;7.12;100.00
6680;BME280;3376;42.664;23.346;2023-03-01T00:58:38;94959.88;;;7.17;100.00
6680;BME280;3376;42.664;23.346;2023-03-01T01:01:09;94947.34;;;7.04;100.00
6680;BME280;3376;42.664;23.346;2023-03-01T01:03:45;94953.31;;;7.05;100.00
6680;BME280;3376;42.664;23.346;2023-03-01T01:06:16;94961.19;;;7.03;100.00
6680;BME280;3376;42.664;23.346;2023-03-01T01:08:44;94961.09;;;6.95;100.00
6680;BME280;3376;42.664;23.346;2023-03-01T01:11:11;94963.00;;;6.93;100.00
6680;BME280;3376;42.664;23.346;2023-03-01T01:13:38;94925.97;;;6.67;100.00
6680;BME280;3376;42.664;23.346;2023-03-01T01:16:06;94956.63;;;6.88;100.00
6680;BME280;3376;42.664;23.346;2023-03-01T01:18:33;94962.22;;;6.83;100.00
6680;BME280;3376;42.664;23.346;2023-03-01T01:21:06;94804.41;;;5.92;100.00
6680;BME280;3376;42.664;23.346;2023-03-01T01:23:33;94924.38;;;6.66;100.00
6680;BME280;3376;42.664;23.346;2023-03-01T01:26:04;94951.09;;;6.83;100.00
6680;BME280;3376;42.664;23.346;2023-03-01T01:28:31;94949.72;;;6.88;100.00
6680;BME280;3376;42.664;23.346;2023-03-01T01:30:58;94936.63;;;6.82;100.00
6680;BME280;3376;42.664;23.346;2023-03-01T01:33:24;94951.63;;;6.86;100.00
6680;BME280;3376;42.664;23.346;2023-03-01T01:35:52;94959.59;;;6.93;100.00
6680;BME280;3376;42.664;23.346;2023-03-01T01:38:20;94972.09;;;6.88;100.00
6680;BME280;3376;42.664;23.346;2023-03-01T01:40:48;94966.63;;;6.73;100.00
6680;BME280;3376;42.664;23.346;2023-03-01T01:43:19;94971.19;;;6.79;100.00
6680;BME280;3376;42.664;23.346;2023-03-01T01:45:47;94966.63;;;6.73;100.00
6680;BME280;3376;42.664;23.346;2023-03-01T01:48:16;94978.75;;;6.81;100.00
6680;BME280;3376;42.664;23.346;2023-03-01T01:50:45;94966.63;;;6.73;100.00
6680;BME280;3376;42.664;23.346;2023-03-01T01:53:20;94969.13;;;6.83;100.00
6680;BME280;3376;42.664;23.346;2023-03-01T01:55:51;94959.69;;;6.74;100.00
6680;BME280;3376;42.664;23.346;2023-03-01T01:58:20;94963.16;;;6.82;100.00
6680;BME280;3376;42.664;23.346;2023-03-01T02:00:48;94958.84;;;6.83;100.00
6680;BME280;3376;42.664;23.346;2023-03-01T02:03:19;94961.34;;;6.92;100.00
6680;BME280;3376;42.664;23.346;2023-03-01T02:05:51;94933.75;;;6.85;100.00
6680;BME280;3376;42.664;23.346;2023-03-01T02:08:23;94953.91;;;6.99;100.00
6680;BME280;3376;42.664;23.346;2023-03-01T02:10:51;94942.09;;;6.96;100.00
6680;BME280;3376;42.664;23.346;2023-03-01T02:13:19;94938.69;;;6.96;100.00
6680;BME280;3376;42.664;23.346;2023-03-01T02:15:46;94916.28;;;6.79;100.00
6680;BME280;3376;42.664;23.346;2023-03-01T02:18:15;94936.03;;;6.88;100.00
6680;BME280;3376;42.664;23.346;2023-03-01T02:20:52;94906.88;;;6.70;100.00
6680;BME280;3376;42.664;23.346;2023-03-01T02:23:22;94941.56;;;6.93;100.00
6680;BME280;3376;42.664;23.346;2023-03-01T02:25:56;94923.63;;;6.74;100.00
6680;BME280;3376;42.664;23.346;2023-03-01T02:28:31;94936.78;;;6.80;100.00
6680;BME280;3376;42.664;23.346;2023-03-01T02:30:58;94937.78;;;6.87;100.00
6680;BME280;3376;42.664;23.346;2023-03-01T02:33:43;94883.13;;;6.49;100.00
6680;BME280;3376;42.664;23.346;2023-03-01T02:36:12;94931.34;;;6.74;100.00
6680;BME280;3376;42.664;23.346;2023-03-01T02:38:41;94963.03;;;6.84;100.00
6680;BME280;3376;42.664;23.346;2023-03-01T02:41:10;94963.28;;;6.90;100.00
6680;BME280;3376;42.664;23.346;2023-03-01T02:43:39;94942.69;;;6.90;100.00
6680;BME280;3376;42.664;23.346;2023-03-01T02:46:08;94903.38;;;6.61;100.00
6680;BME280;3376;42.664;23.346;2023-03-01T02:48:44;94943.84;;;6.96;100.00
6680;BME280;3376;42.664;23.346;2023-03-01T02:51:26;94924.66;;;6.90;100.00
6680;BME280;3376;42.664;23.346;2023-03-01T02:54:08;94953.50;;;6.94;100.00
6680;BME280;3376;42.664;23.346;2023-03-01T02:56:38;94945.41;;;6.89;100.00
6680;BME280;3376;42.664;23.346;2023-03-01T02:59:07;94944.63;;;6.79;100.00
6680;BME280;3376;42.664;23.346;2023-03-01T03:01:35;94938.69;;;6.78;100.00
6680;BME280;3376;42.664;23.346;2023-03-01T03:04:04;94957.22;;;6.82;100.00
6680;BME280;3376;42.664;23.346;2023-03-01T03:06:31;94949.75;;;6.79;100.00
6680;BME280;3376;42.664;23.346;2023-03-01T03:08:58;94950.81;;;6.86;100.00
6680;BME280;3376;42.664;23.346;2023-03-01T03:11:25;94910.25;;;6.70;100.00
6680;BME280;3376;42.664;23.346;2023-03-01T03:13:52;94949.88;;;6.87;100.00
6680;BME280;3376;42.664;23.346;2023-03-01T03:16:20;94950.16;;;6.84;100.00
6680;BME280;3376;42.664;23.346;2023-03-01T03:18:47;94949.13;;;6.77;100.00
6680;BME280;3376;42.664;23.346;2023-03-01T03:21:14;94946.56;;;6.67;100.00
6680;BME280;3376;42.664;23.346;2023-03-01T03:23:42;94915.22;;;6.45;100.00
6680;BME280;3376;42.664;23.346;2023-03-01T03:26:09;94955.19;;;6.85;100.00
6680;BME280;3376;42.664;23.346;2023-03-01T03:28:40;94920.50;;;6.53;100.00
6680;BME280;3376;42.664;23.346;2023-03-01T03:31:08;94947.09;;;6.71;100.00
6680;BME280;3376;42.664;23.346;2023-03-01T03:33:36;94754.09;;;5.43;100.00
6680;BME280;3376;42.664;23.346;2023-03-01T03:36:04;94915.78;;;6.39;100.00
6680;BME280;3376;42.664;23.346;2023-03-01T03:38:31;94951.56;;;6.69;100.00
6680;BME280;3376;42.664;23.346;2023-03-01T03:41:03;94954.00;;;6.70;100.00
6680;BME280;3376;42.664;23.346;2023-03-01T03:46:35;94958.75;;;6.65;100.00
6680;BME280;3376;42.664;23.346;2023-03-01T03:49:03;94960.94;;;6.70;100.00
6680;BME280;3376;42.664;23.346;2023-03-01T03:51:30;94938.75;;;6.50;100.00
6680;BME280;3376;42.664;23.346;2023-03-01T03:53:56;94968.28;;;6.65;100.00
6680;BME280;3376;42.664;23.346;2023-03-01T03:59:09;94969.03;;;6.75;100.00
6680;BME280;3376;42.664;23.346;2023-03-01T04:01:36;94959.97;;;6.71;100.00
6680;BME280;3376;42.664;23.346;2023-03-01T04:04:04;94963.50;;;6.70;100.00
6680;BME280;3376;42.664;23.346;2023-03-01T04:06:33;94959.28;;;6.69;100.00
6680;BME280;3376;42.664;23.346;2023-03-01T04:08:59;94962.94;;;6.76;100.00
6680;BME280;3376;42.664;23.346;2023-03-01T04:11:28;94970.75;;;6.84;100.00
6680;BME280;3376;42.664;23.346;2023-03-01T04:13:57;94967.91;;;6.87;100.00
6680;BME280;3376;42.664;23.346;2023-03-01T04:16:24;94967.53;;;6.82;100.00
6680;BME280;3376;42.664;23.346;2023-03-01T04:18:51;94744.06;;;5.50;100.00
6680;BME280;3376;42.664;23.346;2023-03-01T04:21:21;94961.59;;;6.72;100.00
6680;BME280;3376;42.664;23.346;2023-03-01T04:23:47;94968.91;;;6.76;100.00
6680;BME280;3376;42.664;23.346;2023-03-01T04:26:18;94971.03;;;6.81;100.00
6680;BME280;3376;42.664;23.346;2023-03-01T04:28:44;94970.34;;;6.79;100.00
6680;BME280;3376;42.664;23.346;2023-03-01T04:31:16;94959.59;;;6.66;100.00
6680;BME280;3376;42.664;23.346;2023-03-01T04:33:45;94983.81;;;6.73;100.00
6680;BME280;3376;42.664;23.346;2023-03-01T04:36:14;94971.72;;;6.83;100.00
6680;BME280;3376;42.664;23.346;2023-03-01T04:38:43;94829.28;;;6.01;100.00
6680;BME280;3376;42.664;23.346;2023-03-01T04:41:13;94961.69;;;6.80;100.00
6680;BME280;3376;42.664;23.346;2023-03-01T04:43:40;94967.13;;;6.77;100.00
6680;BME280;3376;42.664;23.346;2023-03-01T04:46:10;94963.88;;;6.75;100.00
6680;BME280;3376;42.664;23.346;2023-03-01T04:48:38;94970.50;;;6.77;100.00
6680;BME280;3376;42.664;23.346;2023-03-01T04:51:06;94967.22;;;6.85;100.00
6680;BME280;3376;42.664;23.346;2023-03-01T04:53:34;94907.13;;;6.40;100.00
6680;BME280;3376;42.664;23.346;2023-03-01T04:56:03;94948.72;;;6.72;100.00
6680;BME280;3376;42.664;23.346;2023-03-01T04:58:30;94962.78;;;6.77;100.00
6680;BME280;3376;42.664;23.346;2023-03-01T05:00:57;94966.00;;;6.89;100.00
6680;BME280;3376;42.664;23.346;2023-03-01T05:03:24;94963.16;;;6.82;100.00
6680;BME280;3376;42.664;23.346;2023-03-01T05:05:52;94963.44;;;6.89;100.00
6680;BME280;3376;42.664;23.346;2023-03-01T05:08:19;94956.63;;;6.88;100.00
6680;BME280;3376;42.664;23.346;2023-03-01T05:10:48;94955.97;;;6.86;100.00
6680;BME280;3376;42.664;23.346;2023-03-01T05:13:17;94966.28;;;6.86;100.00
6680;BME280;3376;42.664;23.346;2023-03-01T05:15:47;94970.09;;;6.82;100.00
6680;BME280;3376;42.664;23.346;2023-03-01T05:18:14;94970.09;;;6.82;100.00
6680;BME280;3376;42.664;23.346;2023-03-01T05:20:41;94954.69;;;6.72;100.00
6680;BME280;3376;42.664;23.346;2023-03-01T05:23:08;94951.63;;;6.86;100.00
6680;BME280;3376;42.664;23.346;2023-03-01T05:25:35;94972.31;;;7.04;100.00
6680;BME280;3376;42.664;23.346;2023-03-01T05:28:06;94963.66;;;6.95;100.00
6680;BME280;3376;42.664;23.346;2023-03-01T05:30:36;94971.41;;;6.95;100.00
6680;BME280;3376;42.664;23.346;2023-03-01T05:33:05;94968.38;;;7.00;100.00
6680;BME280;3376;42.664;23.346;2023-03-01T05:35:35;94968.38;;;7.00;100.00
6680;BME280;3376;42.664;23.346;2023-03-01T05:38:02;94967.84;;;6.96;100.00
6680;BME280;3376;42.664;23.346;2023-03-01T05:40:29;94972.19;;;6.96;100.00
6680;BME280;3376;42.664;23.346;2023-03-01T05:42:56;94954.31;;;6.94;100.00
6680;BME280;3376;42.664;23.346;2023-03-01T05:45:24;94972.38;;;7.12;100.00
6680;BME280;3376;42.664;23.346;2023-03-01T05:47:53;94980.25;;;7.10;100.00
6680;BME280;3376;42.664;23.346;2023-03-01T05:50:22;94966.28;;;7.13;100.00
6680;BME280;3376;42.664;23.346;2023-03-01T05:52:51;94970.25;;;7.07;100.00
6680;BME280;3376;42.664;23.346;2023-03-01T05:55:20;94966.28;;;6.86;100.00
6680;BME280;3376;42.664;23.346;2023-03-01T05:57:48;94993.19;;;7.01;100.00
6680;BME280;3376;42.664;23.346;2023-03-01T06:00:18;94983.00;;;6.99;100.00
6680;BME280;3376;42.664;23.346;2023-03-01T06:02:47;94953.22;;;6.70;100.00
6680;BME280;3376;42.664;23.346;2023-03-01T06:05:16;94974.72;;;6.78;100.00
6680;BME280;3376;42.664;23.346;2023-03-01T06:07:43;94961.19;;;6.67;100.00
6680;BME280;3376;42.664;23.346;2023-03-01T06:10:11;94989.81;;;6.91;100.00
6680;BME280;3376;42.664;23.346;2023-03-01T06:12:41;94996.31;;;6.95;100.00
6680;BME280;3376;42.664;23.346;2023-03-01T06:15:11;95002.69;;;6.91;100.00
6680;BME280;3376;42.664;23.346;2023-03-01T06:17:39;95006.63;;;6.95;100.00
6680;BME280;3376;42.664;23.346;2023-03-01T06:20:09;94996.38;;;6.85;100.00
6680;BME280;3376;42.664;23.346;2023-03-01T06:22:37;95013.38;;;6.96;100.00
6680;BME280;3376;42.664;23.346;2023-03-01T06:25:05;95013.91;;;6.99;100.00
6680;BME280;3376;42.664;23.346;2023-03-01T06:27:32;95010.97;;;6.94;100.00
6680;BME280;3376;42.664;23.346;2023-03-01T06:29:59;94988.50;;;6.87;100.00
6680;BME280;3376;42.664;23.346;2023-03-01T06:32:26;94988.22;;;6.90;100.00
6680;BME280;3376;42.664;23.346;2023-03-01T06:34:53;94993.38;;;6.90;100.00
6680;BME280;3376;42.664;23.346;2023-03-01T06:37:20;95010.44;;;6.91;100.00
6680;BME280;3376;42.664;23.346;2023-03-01T06:39:48;95003.06;;;7.33;100.00
6680;BME280;3376;42.664;23.346;2023-03-01T06:42:15;94992.69;;;7.15;100.00
6680;BME280;3376;42.664;23.346;2023-03-01T06:44:41;95015.41;;;7.29;100.00
6680;BME280;3376;42.664;23.346;2023-03-01T06:47:08;95009.88;;;7.24;100.00
6680;BME280;3376;42.664;23.346;2023-03-01T06:49:35;94991.47;;;6.92;100.00
6680;BME280;3376;42.664;23.346;2023-03-01T06:52:02;95009.69;;;7.08;100.00
6680;BME280;3376;42.664;23.346;2023-03-01T06:54:29;95016.19;;;7.12;100.00
6680;BME280;3376;42.664;23.346;2023-03-01T06:56:57;95009.41;;;7.11;100.00
6680;BME280;3376;42.664;23.346;2023-03-01T06:59:24;95011.78;;;7.22;100.00
6680;BME280;3376;42.664;23.346;2023-03-01T07:01:50;94790.88;;;5.90;100.00
6680;BME280;3376;42.664;23.346;2023-03-01T07:04:17;95009.28;;;7.12;100.00
6680;BME280;3376;42.664;23.346;2023-03-01T07:06:44;95017.63;;;7.24;100.00
6680;BME280;3376;42.664;23.346;2023-03-01T07:09:10;95011.41;;;7.17;100.00
6680;BME280;3376;42.664;23.346;2023-03-01T07:11:37;94997.09;;;7.05;100.00
6680;BME280;3376;42.664;23.346;2023-03-01T07:14:05;95011.50;;;7.25;100.00
6680;BME280;3376;42.664;23.346;2023-03-01T07:16:32;95018.38;;;7.34;100.00
6680;BME280;3376;42.664;23.346;2023-03-01T07:18:59;95007.91;;;7.36;100.00
6680;BME280;3376;42.664;23.346;2023-03-01T07:21:25;95009.19;;;7.32;100.00
6680;BME280;3376;42.664;23.346;2023-03-01T07:23:52;94988.97;;;7.27;100.00
6680;BME280;3376;42.664;23.346;2023-03-01T07:26:19;94978.97;;;7.24;100.00
6680;BME280;3376;42.664;23.346;2023-03-01T07:28:46;95006.84;;;7.38;100.00
6680;BME280;3376;42.664;23.346;2023-03-01T07:31:14;95012.16;;;7.54;100.00
6680;BME280;3376;42.664;23.346;2023-03-01T07:33:41;95024.28;;;7.44;100.00
6680;BME280;3376;42.664;23.346;2023-03-01T07:36:09;94993.84;;;7.57;100.00
6680;BME280;3376;42.664;23.346;2023-03-01T07:38:35;95000.41;;;7.69;100.00
6680;BME280;3376;42.664;23.346;2023-03-01T07:41:03;94948.44;;;7.47;100.00
6680;BME280;3376;42.664;23.346;2023-03-01T07:43:31;95010.06;;;7.85;100.00
6680;BME280;3376;42.664;23.346;2023-03-01T07:45:58;95001.88;;;7.89;100.00
6680;BME280;3376;42.664;23.346;2023-03-01T07:48:28;94847.97;;;6.84;100.00
6680;BME280;3376;42.664;23.346;2023-03-01T07:50:57;94980.81;;;7.76;100.00
6680;BME280;3376;42.664;23.346;2023-03-01T07:53:24;94994.44;;;7.86;100.00
6680;BME280;3376;42.664;23.346;2023-03-01T07:56:00;94973.34;;;7.73;100.00
6680;BME280;3376;42.664;23.346;2023-03-01T07:58:27;94991.25;;;8.10;100.00
6680;BME280;3376;42.664;23.346;2023-03-01T08:00:53;94986.31;;;8.16;100.00
6680;BME280;3376;42.664;23.346;2023-03-01T08:03:20;94986.47;;;8.15;100.00
6680;BME280;3376;42.664;23.346;2023-03-01T08:05:48;94990.63;;;8.16;100.00
6680;BME280;3376;42.664;23.346;2023-03-01T08:08:15;94984.34;;;8.10;100.00
6680;BME280;3376;42.664;23.346;2023-03-01T08:10:42;94973.72;;;8.13;100.00
6680;BME280;3376;42.664;23.346;2023-03-01T08:13:09;94992.53;;;8.23;100.00
6680;BME280;3376;42.664;23.346;2023-03-01T08:15:35;94989.34;;;8.29;100.00
6680;BME280;3376;42.664;23.346;2023-03-01T08:18:02;94980.94;;;8.27;100.00
6680;BME280;3376;42.664;23.346;2023-03-01T08:20:29;94984.31;;;8.28;100.00
6680;BME280;3376;42.664;23.346;2023-03-01T08:22:59;94984.47;;;8.26;100.00
6680;BME280;3376;42.664;23.346;2023-03-01T08:25:25;94981.47;;;8.31;100.00
6680;BME280;3376;42.664;23.346;2023-03-01T08:27:52;94982.72;;;8.27;100.00
6680;BME280;3376;42.664;23.346;2023-03-01T08:30:19;94970.91;;;8.24;100.00
6680;BME280;3376;42.664;23.346;2023-03-01T08:32:46;94971.84;;;8.41;100.00
6680;BME280;3376;42.664;23.346;2023-03-01T08:35:12;94980.25;;;8.43;100.00
6680;BME280;3376;42.664;23.346;2023-03-01T08:37:39;94984.94;;;8.48;100.00
6680;BME280;3376;42.664;23.346;2023-03-01T08:40:09;94957.72;;;8.27;100.00
6680;BME280;3376;42.664;23.346;2023-03-01T08:42:36;94964.63;;;8.45;100.00
6680;BME280;3376;42.664;23.346;2023-03-01T08:45:03;94988.94;;;8.42;100.00
6680;BME280;3376;42.664;23.346;2023-03-01T08:47:30;94953.69;;;8.33;100.00
6680;BME280;3376;42.664;23.346;2023-03-01T08:49:58;94990.94;;;8.48;100.00
6680;BME280;3376;42.664;23.346;2023-03-01T08:52:25;94992.03;;;8.46;100.00
6680;BME280;3376;42.664;23.346;2023-03-01T08:54:53;94965.50;;;8.36;100.00
6680;BME280;3376;42.664;23.346;2023-03-01T08:57:21;94968.19;;;8.26;100.00
6680;BME280;3376;42.664;23.346;2023-03-01T08:59:48;94986.56;;;8.49;100.00
6680;BME280;3376;42.664;23.346;2023-03-01T09:02:16;94973.03;;;8.47;100.00
6680;BME280;3376;42.664;23.346;2023-03-01T09:04:44;94981.16;;;8.60;100.00
6680;BME280;3376;42.664;23.346;2023-03-01T09:07:28;94982.88;;;8.51;100.00
6680;BME280;3376;42.664;23.346;2023-03-01T09:09:55;94983.06;;;8.58;100.00
6680;BME280;3376;42.664;23.346;2023-03-01T09:12:23;94980.59;;;8.48;100.00
6680;BME280;3376;42.664;23.346;2023-03-01T09:14:51;94930.69;;;8.40;100.00
6680;BME280;3376;42.664;23.346;2023-03-01T09:17:17;94982.38;;;8.73;100.00
6680;BME280;3376;42.664;23.346;2023-03-01T09:19:47;94980.38;;;8.93;100.00
6680;BME280;3376;42.664;23.346;2023-03-01T09:22:13;94985.25;;;9.04;100.00
6680;BME280;3376;42.664;23.346;2023-03-01T09:24:40;94959.81;;;9.17;99.77
6680;BME280;3376;42.664;23.346;2023-03-01T09:27:07;94976.34;;;9.32;98.74
6680;BME280;3376;42.664;23.346;2023-03-01T09:29:37;94961.75;;;9.15;99.62
6680;BME280;3376;42.664;23.346;2023-03-01T09:32:04;94981.75;;;9.13;100.00
6680;BME280;3376;42.664;23.346;2023-03-01T09:34:31;94971.06;;;9.00;100.00
6680;BME280;3376;42.664;23.346;2023-03-01T09:37:17;94975.41;;;8.99;100.00
6680;BME280;3376;42.664;23.346;2023-03-01T09:39:44;94971.47;;;8.87;100.00
6680;BME280;3376;42.664;23.346;2023-03-01T09:42:12;94962.81;;;8.71;100.00
6680;BME280;3376;42.664;23.346;2023-03-01T09:44:47;94918.00;;;8.46;100.00
6680;BME280;3376;42.664;23.346;2023-03-01T09:47:18;94968.03;;;8.79;100.00
6680;BME280;3376;42.664;23.346;2023-03-01T09:49:59;94958.53;;;8.79;100.00
6680;BME280;3376;42.664;23.346;2023-03-01T09:52:34;94965.16;;;8.90;100.00
6680;BME280;3376;42.664;23.346;2023-03-01T09:55:09;94932.97;;;8.76;100.00
6680;BME280;3376;42.664;23.346;2023-03-01T09:57:43;94949.56;;;8.99;100.00
6680;BME280;3376;42.664;23.346;2023-03-01T10:00:29;94925.06;;;8.78;100.00
6680;BME280;3376;42.664;23.346;2023-03-01T10:03:00;94950.59;;;9.14;100.00
6680;BME280;3376;42.664;23.346;2023-03-01T10:05:36;94949.50;;;9.25;99.87
6680;BME280;3376;42.664;23.346;2023-03-01T10:08:24;94935.25;;;9.21;100.00
6680;BME280;3376;42.664;23.346;2023-03-01T10:10:55;94947.38;;;9.20;100.00
6680;BME280;3376;42.664;23.346;2023-03-01T10:13:27;94941.03;;;9.07;100.00
6680;BME280;3376;42.664;23.346;2023-03-01T10:16:01;94945.56;;;9.13;100.00
6680;BME280;3376;42.664;23.346;2023-03-01T10:18:32;94942.34;;;9.11;100.00
6680;BME280;3376;42.664;23.346;2023-03-01T10:21:05;94953.00;;;9.16;99.73
6680;BME280;3376;42.664;23.346;2023-03-01T10:26:33;94936.84;;;9.14;100.00
6680;BME280;3376;42.664;23.346;2023-03-01T10:29:05;94928.94;;;9.15;100.00
6680;BME280;3376;42.664;23.346;2023-03-01T10:31:39;94929.59;;;9.17;100.00
6680;BME280;3376;42.664;23.346;2023-03-01T10:34:14;94928.00;;;9.24;100.00
6680;BME280;3376;42.664;23.346;2023-03-01T10:36:42;94916.56;;;9.27;99.35
6680;BME280;3376;42.664;23.346;2023-03-01T10:39:15;94926.25;;;9.33;99.10
6680;BME280;3376;42.664;23.346;2023-03-01T10:41:58;94920.47;;;9.39;99.75
6680;BME280;3376;42.664;23.346;2023-03-01T10:44:37;94907.38;;;9.57;97.94
6680;BME280;3376;42.664;23.346;2023-03-01T10:47:13;94905.59;;;9.65;97.14
6680;BME280;3376;42.664;23.346;2023-03-01T10:49:52;94910.94;;;9.56;97.05
6680;BME280;3376;42.664;23.346;2023-03-01T10:52:20;94915.00;;;9.74;96.57
6680;BME280;3376;42.664;23.346;2023-03-01T10:54:53;94915.66;;;9.84;96.16
6680;BME280;3376;42.664;23.346;2023-03-01T10:57:43;94915.50;;;9.94;95.83
6680;BME280;3376;42.664;23.346;2023-03-01T11:00:20;94911.47;;;10.23;95.04
6680;BME280;3376;42.664;23.346;2023-03-01T11:02:51;94909.78;;;10.62;92.21
6680;BME280;3376;42.664;23.346;2023-03-01T11:05:28;94916.75;;;11.01;89.84
6680;BME280;3376;42.664;23.346;2023-03-01T11:07:57;94907.97;;;11.10;88.39
6680;BME280;3376;42.664;23.346;2023-03-01T11:10:26;94914.59;;;11.20;87.84
6680;BME280;3376;42.664;23.346;2023-03-01T11:12:53;94921.66;;;11.26;87.98
6680;BME280;3376;42.664;23.346;2023-03-01T11:15:24;94925.63;;;11.14;87.07
6680;BME280;3376;42.664;23.346;2023-03-01T11:17:52;94915.66;;;10.95;88.76
6680;BME280;3376;42.664;23.346;2023-03-01T11:20:25;94876.41;;;10.59;89.74
6680;BME280;3376;42.664;23.346;2023-03-01T11:22:55;94907.38;;;10.53;90.34
6680;BME280;3376;42.664;23.346;2023-03-01T11:25:25;94918.41;;;10.39;91.56
6680;BME280;3376;42.664;23.346;2023-03-01T11:27:53;94911.94;;;10.27;92.20
6680;BME280;3376;42.664;23.346;2023-03-01T11:30:24;94895.59;;;10.18;91.94
6680;BME280;3376;42.664;23.346;2023-03-01T11:33:01;94905.47;;;10.15;92.70
6680;BME280;3376;42.664;23.346;2023-03-01T11:35:30;94919.06;;;10.01;93.55
6680;BME280;3376;42.664;23.346;2023-03-01T11:38:04;94903.38;;;9.78;95.57
6680;BME280;3376;42.664;23.346;2023-03-01T11:40:40;94890.91;;;9.66;96.65
6680;BME280;3376;42.664;23.346;2023-03-01T11:43:15;94892.69;;;9.73;96.69
6680;BME280;3376;42.664;23.346;2023-03-01T11:45:51;94891.38;;;9.77;97.35
6680;BME280;3376;42.664;23.346;2023-03-01T11:48:44;94884.13;;;9.73;96.97
6680;BME280;3376;42.664;23.346;2023-03-01T11:51:18;94873.78;;;9.73;97.16
6680;BME280;3376;42.664;23.346;2023-03-01T11:54:02;94772.75;;;9.18;96.71
6680;BME280;3376;42.664;23.346;2023-03-01T11:56:35;94663.84;;;8.41;97.01
6680;BME280;3376;42.664;23.346;2023-03-01T11:59:35;94861.31;;;9.60;98.13
6680;BME280;3376;42.664;23.346;2023-03-01T12:05:38;94869.06;;;9.84;96.77
6680;BME280;3376;42.664;23.346;2023-03-01T12:08:16;94871.84;;;9.99;97.03
6680;BME280;3376;42.664;23.346;2023-03-01T12:10:52;94874.41;;;10.15;96.11
6680;BME280;3376;42.664;23.346;2023-03-01T12:13:51;94871.91;;;10.53;93.95
6680;BME280;3376;42.664;23.346;2023-03-01T12:16:31;94862.16;;;11.02;91.97
6680;BME280;3376;42.664;23.346;2023-03-01T12:19:10;94865.78;;;11.24;89.48
6680;BME280;3376;42.664;23.346;2023-03-01T12:21:53;94869.81;;;11.49;87.99
6680;BME280;3376;42.664;23.346;2023-03-01T12:24:44;94857.88;;;11.62;86.67
6680;BME280;3376;42.664;23.346;2023-03-01T12:27:29;94869.28;;;11.84;85.90
6680;BME280;3376;42.664;23.346;2023-03-01T12:30:15;94862.47;;;11.83;85.11
6680;BME280;3376;42.664;23.346;2023-03-01T12:32:51;94861.78;;;11.89;84.86
6680;BME280;3376;42.664;23.346;2023-03-01T12:35:39;94860.06;;;11.81;84.61
6680;BME280;3376;42.664;23.346;2023-03-01T12:38:36;94857.41;;;11.67;85.09
6680;BME280;3376;42.664;23.346;2023-03-01T12:41:35;94856.47;;;11.60;85.58
6680;BME280;3376;42.664;23.346;2023-03-01T12:44:20;94846.44;;;11.34;86.18
6680;BME280;3376;42.664;23.346;2023-03-01T12:47:04;94843.53;;;11.29;87.71
6680;BME280;3376;42.664;23.346;2023-03-01T12:49:35;94848.59;;;11.23;86.64
6680;BME280;3376;42.664;23.346;2023-03-01T12:52:10;94857.97;;;11.01;87.55
6680;BME280;3376;42.664;23.346;2023-03-01T12:54:40;94852.16;;;10.60;90.59
6680;BME280;3376;42.664;23.346;2023-03-01T12:57:12;94834.09;;;10.36;92.20
6680;BME280;3376;42.664;23.346;2023-03-01T12:59:47;94826.53;;;10.19;91.76
6680;BME280;3376;42.664;23.346;2023-03-01T13:02:23;94859.69;;;10.07;92.20
6680;BME280;3376;42.664;23.346;2023-03-01T13:05:06;94838.03;;;9.84;94.40
6680;BME280;3376;42.664;23.346;2023-03-01T13:07:49;94835.44;;;9.92;95.67
6680;BME280;3376;42.664;23.346;2023-03-01T13:10:26;94842.25;;;10.09;95.09
6680;BME280;3376;42.664;23.346;2023-03-01T13:13:13;94853.06;;;10.21;94.29
6680;BME280;3376;42.664;23.346;2023-03-01T13:15:41;94838.66;;;10.18;94.20
6680;BME280;3376;42.664;23.346;2023-03-01T13:18:27;94851.22;;;10.37;93.38
6680;BME280;3376;42.664;23.346;2023-03-01T13:20:55;94847.53;;;10.32;93.24
6680;BME280;3376;42.664;23.346;2023-03-01T13:23:25;94845.44;;;10.27;93.55
6680;BME280;3376;42.664;23.346;2023-03-01T13:26:07;94845.44;;;10.27;94.11
6680;BME280;3376;42.664;23.346;2023-03-01T13:28:52;94853.09;;;10.13;94.01
6680;BME280;3376;42.664;23.346;2023-03-01T13:34:42;94850.63;;;10.27;94.29
6680;BME280;3376;42.664;23.346;2023-03-01T13:37:10;94847.38;;;10.25;92.99
6680;BME280;3376;42.664;23.346;2023-03-01T13:39:44;94842.03;;;10.27;92.92
6680;BME280;3376;42.664;23.346;2023-03-01T13:42:39;94848.00;;;10.35;92.27
6680;BME280;3376;42.664;23.346;2023-03-01T13:45:25;94832.03;;;10.16;93.29
6680;BME280;3376;42.664;23.346;2023-03-01T13:48:02;94808.28;;;9.88;93.82